sensor_id;sensor_type;location;lat;lon;timestamp;P1;durP1;ratioP1;P2;durP2;ratioP2
1991;SDS011;997;48.448;8.924;2023-12-20T00:02:20;1.33;;;1.23;;
1991;SDS011;997;48.448;8.924;2023-12-20T00:04:46;1.60;;;1.50;;
1991;SDS011;997;48.448;8.924;2023-12-20T00:07:11;1.83;;;1.73;;
1991;SDS011;997;48.448;8.924;2023-12-20T00:09:37;1.37;;;1.20;;
1991;SDS011;997;48.448;8.924;2023-12-20T00:12:03;1.93;;;1.73;;
1991;SDS011;997;48.448;8.924;2023-12-20T00:14:29;3.57;;;1.20;;
1991;SDS011;997;48.448;8.924;2023-12-20T00:16:55;1.43;;;1.33;;
1991;SDS011;997;48.448;8.924;2023-12-20T00:19:20;1.33;;;1.23;;
1991;SDS011;997;48.448;8.924;2023-12-20T00:21:46;1.17;;;1.07;;
1991;SDS011;997;48.448;8.924;2023-12-20T00:24:12;1.20;;;1.10;;
1991;SDS011;997;48.448;8.924;2023-12-20T00:26:37;1.50;;;1.40;;
1991;SDS011;997;48.448;8.924;2023-12-20T00:29:03;1.20;;;1.10;;
1991;SDS011;997;48.448;8.924;2023-12-20T00:31:29;2.40;;;1.60;;
1991;SDS011;997;48.448;8.924;2023-12-20T00:33:55;1.80;;;1.23;;
1991;SDS011;997;48.448;8.924;2023-12-20T00:36:21;2.20;;;1.53;;
1991;SDS011;997;48.448;8.924;2023-12-20T00:38:47;1.57;;;1.47;;
1991;SDS011;997;48.448;8.924;2023-12-20T00:41:13;0.97;;;0.97;;
1991;SDS011;997;48.448;8.924;2023-12-20T00:43:39;1.33;;;1.23;;
1991;SDS011;997;48.448;8.924;2023-12-20T00:46:05;1.23;;;1.20;;
1991;SDS011;997;48.448;8.924;2023-12-20T00:48:31;1.00;;;0.80;;
1991;SDS011;997;48.448;8.924;2023-12-20T00:50:57;1.43;;;1.33;;
1991;SDS011;997;48.448;8.924;2023-12-20T00:53:23;1.30;;;1.20;;
1991;SDS011;997;48.448;8.924;2023-12-20T00:55:48;1.50;;;1.40;;
1991;SDS011;997;48.448;8.924;2023-12-20T00:58:15;1.43;;;1.33;;
1991;SDS011;997;48.448;8.924;2023-12-20T01:00:41;1.50;;;1.40;;
1991;SDS011;997;48.448;8.924;2023-12-20T01:03:08;1.87;;;1.77;;
1991;SDS011;997;48.448;8.924;2023-12-20T01:05:33;2.40;;;2.27;;
1991;SDS011;997;48.448;8.924;2023-12-20T01:08:00;1.50;;;1.40;;
1991;SDS011;997;48.448;8.924;2023-12-20T01:10:28;1.80;;;1.63;;
1991;SDS011;997;48.448;8.924;2023-12-20T01:12:54;2.17;;;1.97;;
1991;SDS011;997;48.448;8.924;2023-12-20T01:15:20;1.60;;;1.50;;
1991;SDS011;997;48.448;8.924;2023-12-20T01:17:46;1.30;;;1.17;;
1991;SDS011;997;48.448;8.924;2023-12-20T01:20:12;1.30;;;1.20;;
1991;SDS011;997;48.448;8.924;2023-12-20T01:22:38;1.40;;;1.30;;
1991;SDS011;997;48.448;8.924;2023-12-20T01:25:04;1.50;;;1.40;;
1991;SDS011;997;48.448;8.924;2023-12-20T01:27:30;2.83;;;1.60;;
1991;SDS011;997;48.448;8.924;2023-12-20T01:29:56;1.30;;;1.10;;
1991;SDS011;997;48.448;8.924;2023-12-20T01:32:22;1.30;;;0.97;;
1991;SDS011;997;48.448;8.924;2023-12-20T01:34:52;1.30;;;1.20;;
1991;SDS011;997;48.448;8.924;2023-12-20T01:37:25;1.23;;;1.13;;
1991;SDS011;997;48.448;8.924;2023-12-20T01:43:58;1.50;;;1.40;;
1991;SDS011;997;48.448;8.924;2023-12-20T01:46:29;2.03;;;1.20;;
1991;SDS011;997;48.448;8.924;2023-12-20T01:48:58;1.10;;;1.10;;
1991;SDS011;997;48.448;8.924;2023-12-20T01:51:25;0.90;;;0.90;;
1991;SDS011;997;48.448;8.924;2023-12-20T01:53:52;1.20;;;1.10;;
1991;SDS011;997;48.448;8.924;2023-12-20T01:56:22;0.90;;;0.90;;
1991;SDS011;997;48.448;8.924;2023-12-20T01:58:48;1.20;;;0.97;;
1991;SDS011;997;48.448;8.924;2023-12-20T02:01:14;0.90;;;0.90;;
1991;SDS011;997;48.448;8.924;2023-12-20T02:03:41;1.00;;;1.00;;
1991;SDS011;997;48.448;8.924;2023-12-20T02:06:07;0.70;;;0.70;;
1991;SDS011;997;48.448;8.924;2023-12-20T02:08:34;1.20;;;1.10;;
1991;SDS011;997;48.448;8.924;2023-12-20T02:11:00;1.13;;;1.03;;
1991;SDS011;997;48.448;8.924;2023-12-20T02:13:26;1.00;;;0.90;;
1991;SDS011;997;48.448;8.924;2023-12-20T02:15:52;1.30;;;1.07;;
1991;SDS011;997;48.448;8.924;2023-12-20T02:18:19;1.33;;;1.10;;
1991;SDS011;997;48.448;8.924;2023-12-20T02:20:45;1.10;;;1.00;;
1991;SDS011;997;48.448;8.924;2023-12-20T02:23:11;1.37;;;1.27;;
1991;SDS011;997;48.448;8.924;2023-12-20T02:25:39;1.20;;;1.10;;
1991;SDS011;997;48.448;8.924;2023-12-20T02:28:05;1.73;;;1.63;;
1991;SDS011;997;48.448;8.924;2023-12-20T02:30:34;1.40;;;1.30;;
1991;SDS011;997;48.448;8.924;2023-12-20T02:33:10;1.93;;;1.40;;
1991;SDS011;997;48.448;8.924;2023-12-20T02:36:30;1.30;;;1.20;;
1991;SDS011;997;48.448;8.924;2023-12-20T02:39:29;1.40;;;1.30;;
1991;SDS011;997;48.448;8.924;2023-12-20T02:42:13;1.40;;;1.30;;
1991;SDS011;997;48.448;8.924;2023-12-20T02:44:39;1.20;;;1.10;;
1991;SDS011;997;48.448;8.924;2023-12-20T02:50:09;1.13;;;1.10;;
1991;SDS011;997;48.448;8.924;2023-12-20T02:52:47;1.40;;;1.30;;
1991;SDS011;997;48.448;8.924;2023-12-20T02:55:20;2.00;;;1.60;;
1991;SDS011;997;48.448;8.924;2023-12-20T02:58:12;1.70;;;1.60;;
1991;SDS011;997;48.448;8.924;2023-12-20T03:00:54;1.13;;;1.13;;
1991;SDS011;997;48.448;8.924;2023-12-20T03:03:44;2.73;;;2.53;;
1991;SDS011;997;48.448;8.924;2023-12-20T03:06:32;2.17;;;2.03;;
1991;SDS011;997;48.448;8.924;2023-12-20T03:09:07;1.53;;;1.43;;
1991;SDS011;997;48.448;8.924;2023-12-20T03:11:42;1.47;;;1.37;;
1991;SDS011;997;48.448;8.924;2023-12-20T03:14:12;1.20;;;1.10;;
1991;SDS011;997;48.448;8.924;2023-12-20T03:16:38;2.30;;;1.70;;
1991;SDS011;997;48.448;8.924;2023-12-20T03:19:03;2.57;;;2.20;;
1991;SDS011;997;48.448;8.924;2023-12-20T03:21:29;1.37;;;1.27;;
1991;SDS011;997;48.448;8.924;2023-12-20T03:23:55;0.90;;;0.90;;
1991;SDS011;997;48.448;8.924;2023-12-20T03:26:20;1.13;;;1.07;;
1991;SDS011;997;48.448;8.924;2023-12-20T03:28:47;1.43;;;1.33;;
1991;SDS011;997;48.448;8.924;2023-12-20T03:31:14;1.53;;;1.00;;
1991;SDS011;997;48.448;8.924;2023-12-20T03:33:39;1.00;;;0.93;;
1991;SDS011;997;48.448;8.924;2023-12-20T03:36:05;0.90;;;0.80;;
1991;SDS011;997;48.448;8.924;2023-12-20T03:38:32;0.80;;;0.80;;
1991;SDS011;997;48.448;8.924;2023-12-20T03:40:57;1.53;;;1.00;;
1991;SDS011;997;48.448;8.924;2023-12-20T03:43:23;1.03;;;1.00;;
1991;SDS011;997;48.448;8.924;2023-12-20T03:45:49;0.60;;;0.60;;
1991;SDS011;997;48.448;8.924;2023-12-20T03:48:15;0.80;;;0.80;;
1991;SDS011;997;48.448;8.924;2023-12-20T03:50:40;0.73;;;0.70;;
1991;SDS011;997;48.448;8.924;2023-12-20T03:53:06;0.63;;;0.63;;
1991;SDS011;997;48.448;8.924;2023-12-20T03:55:33;1.87;;;1.53;;
1991;SDS011;997;48.448;8.924;2023-12-20T03:57:58;1.13;;;1.00;;
1991;SDS011;997;48.448;8.924;2023-12-20T04:00:24;1.50;;;1.40;;
1991;SDS011;997;48.448;8.924;2023-12-20T04:02:54;1.23;;;1.10;;
1991;SDS011;997;48.448;8.924;2023-12-20T04:05:21;1.70;;;1.03;;
1991;SDS011;997;48.448;8.924;2023-12-20T04:08:31;1.30;;;1.20;;
1991;SDS011;997;48.448;8.924;2023-12-20T04:11:41;1.30;;;1.10;;
1991;SDS011;997;48.448;8.924;2023-12-20T04:14:07;0.80;;;0.80;;
1991;SDS011;997;48.448;8.924;2023-12-20T04:17:14;0.90;;;0.90;;
1991;SDS011;997;48.448;8.924;2023-12-20T04:20:23;1.00;;;1.00;;
1991;SDS011;997;48.448;8.924;2023-12-20T04:23:16;0.80;;;0.80;;
1991;SDS011;997;48.448;8.924;2023-12-20T04:25:49;1.00;;;0.90;;
1991;SDS011;997;48.448;8.924;2023-12-20T04:28:16;1.07;;;0.90;;
1991;SDS011;997;48.448;8.924;2023-12-20T04:30:52;1.80;;;1.47;;
1991;SDS011;997;48.448;8.924;2023-12-20T04:33:39;1.37;;;0.90;;
1991;SDS011;997;48.448;8.924;2023-12-20T04:43:34;0.80;;;0.80;;
1991;SDS011;997;48.448;8.924;2023-12-20T04:46:18;0.70;;;0.70;;
1991;SDS011;997;48.448;8.924;2023-12-20T04:48:44;0.60;;;0.50;;
1991;SDS011;997;48.448;8.924;2023-12-20T04:51:10;1.27;;;0.80;;
1991;SDS011;997;48.448;8.924;2023-12-20T04:53:37;0.73;;;0.73;;
1991;SDS011;997;48.448;8.924;2023-12-20T04:56:03;0.67;;;0.67;;
1991;SDS011;997;48.448;8.924;2023-12-20T04:58:29;1.90;;;0.63;;
1991;SDS011;997;48.448;8.924;2023-12-20T05:00:55;0.80;;;0.80;;
1991;SDS011;997;48.448;8.924;2023-12-20T05:03:21;0.77;;;0.70;;
1991;SDS011;997;48.448;8.924;2023-12-20T05:05:46;0.60;;;0.60;;
1991;SDS011;997;48.448;8.924;2023-12-20T05:08:13;0.60;;;0.60;;
1991;SDS011;997;48.448;8.924;2023-12-20T05:10:39;0.70;;;0.70;;
1991;SDS011;997;48.448;8.924;2023-12-20T05:13:05;0.80;;;0.80;;
1991;SDS011;997;48.448;8.924;2023-12-20T05:15:31;1.00;;;1.00;;
1991;SDS011;997;48.448;8.924;2023-12-20T05:17:57;1.10;;;1.00;;
1991;SDS011;997;48.448;8.924;2023-12-20T05:20:22;1.23;;;1.13;;
1991;SDS011;997;48.448;8.924;2023-12-20T05:22:48;0.87;;;0.87;;
1991;SDS011;997;48.448;8.924;2023-12-20T05:25:14;0.80;;;0.80;;
1991;SDS011;997;48.448;8.924;2023-12-20T05:27:40;0.80;;;0.80;;
1991;SDS011;997;48.448;8.924;2023-12-20T05:30:06;2.00;;;1.20;;
1991;SDS011;997;48.448;8.924;2023-12-20T05:32:32;2.87;;;1.30;;
1991;SDS011;997;48.448;8.924;2023-12-20T05:34:58;1.00;;;0.87;;
1991;SDS011;997;48.448;8.924;2023-12-20T05:37:23;2.53;;;1.00;;
1991;SDS011;997;48.448;8.924;2023-12-20T05:39:49;1.10;;;0.70;;
1991;SDS011;997;48.448;8.924;2023-12-20T05:42:15;1.10;;;1.00;;
1991;SDS011;997;48.448;8.924;2023-12-20T05:44:41;1.00;;;0.90;;
1991;SDS011;997;48.448;8.924;2023-12-20T05:47:06;0.77;;;0.77;;
1991;SDS011;997;48.448;8.924;2023-12-20T05:49:32;1.20;;;1.00;;
1991;SDS011;997;48.448;8.924;2023-12-20T05:51:58;1.30;;;1.07;;
1991;SDS011;997;48.448;8.924;2023-12-20T05:54:25;0.77;;;0.77;;
1991;SDS011;997;48.448;8.924;2023-12-20T05:56:50;1.30;;;1.17;;
1991;SDS011;997;48.448;8.924;2023-12-20T05:59:16;3.17;;;1.53;;
1991;SDS011;997;48.448;8.924;2023-12-20T06:01:43;2.40;;;2.20;;
1991;SDS011;997;48.448;8.924;2023-12-20T06:04:09;1.47;;;1.10;;
1991;SDS011;997;48.448;8.924;2023-12-20T06:06:34;1.43;;;1.20;;
1991;SDS011;997;48.448;8.924;2023-12-20T06:09:06;1.50;;;1.40;;
1991;SDS011;997;48.448;8.924;2023-12-20T06:11:31;2.00;;;1.90;;
1991;SDS011;997;48.448;8.924;2023-12-20T06:13:57;2.70;;;2.10;;
1991;SDS011;997;48.448;8.924;2023-12-20T06:16:23;1.40;;;1.30;;
1991;SDS011;997;48.448;8.924;2023-12-20T06:18:49;1.30;;;1.20;;
1991;SDS011;997;48.448;8.924;2023-12-20T06:21:14;1.13;;;1.10;;
1991;SDS011;997;48.448;8.924;2023-12-20T06:23:40;0.70;;;0.70;;
1991;SDS011;997;48.448;8.924;2023-12-20T06:26:06;0.90;;;0.87;;
1991;SDS011;997;48.448;8.924;2023-12-20T06:28:32;0.60;;;0.53;;
1991;SDS011;997;48.448;8.924;2023-12-20T06:30:58;1.97;;;1.10;;
1991;SDS011;997;48.448;8.924;2023-12-20T06:33:25;0.80;;;0.80;;
1991;SDS011;997;48.448;8.924;2023-12-20T06:35:51;1.03;;;0.93;;
1991;SDS011;997;48.448;8.924;2023-12-20T06:38:17;2.17;;;2.07;;
1991;SDS011;997;48.448;8.924;2023-12-20T06:40:44;2.23;;;1.83;;
1991;SDS011;997;48.448;8.924;2023-12-20T06:43:10;2.73;;;2.53;;
1991;SDS011;997;48.448;8.924;2023-12-20T06:45:37;5.23;;;4.50;;
1991;SDS011;997;48.448;8.924;2023-12-20T06:48:03;4.13;;;2.97;;
1991;SDS011;997;48.448;8.924;2023-12-20T06:50:29;4.80;;;4.20;;
1991;SDS011;997;48.448;8.924;2023-12-20T06:52:54;3.77;;;3.40;;
1991;SDS011;997;48.448;8.924;2023-12-20T06:55:20;5.50;;;4.83;;
1991;SDS011;997;48.448;8.924;2023-12-20T06:57:46;7.57;;;6.97;;
1991;SDS011;997;48.448;8.924;2023-12-20T07:00:12;4.40;;;4.00;;
1991;SDS011;997;48.448;8.924;2023-12-20T07:02:39;3.47;;;3.27;;
1991;SDS011;997;48.448;8.924;2023-12-20T07:05:05;2.83;;;2.63;;
1991;SDS011;997;48.448;8.924;2023-12-20T07:07:32;1.20;;;1.20;;
1991;SDS011;997;48.448;8.924;2023-12-20T07:09:58;1.60;;;1.50;;
1991;SDS011;997;48.448;8.924;2023-12-20T07:12:27;1.87;;;1.70;;
1991;SDS011;997;48.448;8.924;2023-12-20T07:14:53;1.30;;;1.20;;
1991;SDS011;997;48.448;8.924;2023-12-20T07:17:19;1.40;;;1.30;;
1991;SDS011;997;48.448;8.924;2023-12-20T07:19:50;1.00;;;0.97;;
1991;SDS011;997;48.448;8.924;2023-12-20T07:22:16;0.90;;;0.90;;
1991;SDS011;997;48.448;8.924;2023-12-20T07:24:45;1.47;;;1.37;;
1991;SDS011;997;48.448;8.924;2023-12-20T07:27:11;1.63;;;1.40;;
1991;SDS011;997;48.448;8.924;2023-12-20T07:29:38;0.93;;;0.90;;
1991;SDS011;997;48.448;8.924;2023-12-20T07:32:04;0.80;;;0.80;;
1991;SDS011;997;48.448;8.924;2023-12-20T07:34:30;2.93;;;1.93;;
1991;SDS011;997;48.448;8.924;2023-12-20T07:36:56;1.13;;;1.10;;
1991;SDS011;997;48.448;8.924;2023-12-20T07:39:21;1.50;;;1.40;;
1991;SDS011;997;48.448;8.924;2023-12-20T07:41:47;1.50;;;1.40;;
1991;SDS011;997;48.448;8.924;2023-12-20T07:44:12;2.37;;;2.17;;
1991;SDS011;997;48.448;8.924;2023-12-20T07:46:38;10.67;;;9.00;;
1991;SDS011;997;48.448;8.924;2023-12-20T07:49:04;11.50;;;9.23;;
1991;SDS011;997;48.448;8.924;2023-12-20T07:51:30;2.60;;;2.40;;
1991;SDS011;997;48.448;8.924;2023-12-20T07:53:56;1.73;;;1.63;;
1991;SDS011;997;48.448;8.924;2023-12-20T07:56:21;2.33;;;1.30;;
1991;SDS011;997;48.448;8.924;2023-12-20T07:58:47;1.67;;;1.40;;
1991;SDS011;997;48.448;8.924;2023-12-20T08:01:13;1.30;;;1.10;;
1991;SDS011;997;48.448;8.924;2023-12-20T08:03:40;1.07;;;1.00;;
1991;SDS011;997;48.448;8.924;2023-12-20T08:06:06;1.17;;;1.07;;
1991;SDS011;997;48.448;8.924;2023-12-20T08:08:32;1.13;;;1.07;;
1991;SDS011;997;48.448;8.924;2023-12-20T08:10:57;1.30;;;1.20;;
1991;SDS011;997;48.448;8.924;2023-12-20T08:13:25;1.23;;;1.10;;
1991;SDS011;997;48.448;8.924;2023-12-20T08:15:51;1.30;;;1.20;;
1991;SDS011;997;48.448;8.924;2023-12-20T08:18:17;1.07;;;0.97;;
1991;SDS011;997;48.448;8.924;2023-12-20T08:20:43;2.17;;;1.33;;
1991;SDS011;997;48.448;8.924;2023-12-20T08:23:09;0.93;;;0.90;;
1991;SDS011;997;48.448;8.924;2023-12-20T08:25:34;1.00;;;1.00;;
1991;SDS011;997;48.448;8.924;2023-12-20T08:28:01;0.80;;;0.80;;
1991;SDS011;997;48.448;8.924;2023-12-20T08:30:29;2.70;;;1.00;;
1991;SDS011;997;48.448;8.924;2023-12-20T08:32:56;1.20;;;1.10;;
1991;SDS011;997;48.448;8.924;2023-12-20T08:35:22;2.70;;;1.10;;
1991;SDS011;997;48.448;8.924;2023-12-20T08:37:49;1.63;;;1.53;;
1991;SDS011;997;48.448;8.924;2023-12-20T08:40:14;1.10;;;1.00;;
1991;SDS011;997;48.448;8.924;2023-12-20T08:42:40;6.70;;;1.70;;
1991;SDS011;997;48.448;8.924;2023-12-20T08:45:06;1.93;;;1.60;;
1991;SDS011;997;48.448;8.924;2023-12-20T08:47:32;1.20;;;1.10;;
1991;SDS011;997;48.448;8.924;2023-12-20T08:49:57;2.70;;;2.43;;
1991;SDS011;997;48.448;8.924;2023-12-20T08:52:25;3.20;;;1.77;;
1991;SDS011;997;48.448;8.924;2023-12-20T08:54:54;2.93;;;2.60;;
1991;SDS011;997;48.448;8.924;2023-12-20T08:57:20;4.83;;;4.33;;
1991;SDS011;997;48.448;8.924;2023-12-20T08:59:49;3.70;;;3.40;;
1991;SDS011;997;48.448;8.924;2023-12-20T09:02:16;2.80;;;2.60;;
1991;SDS011;997;48.448;8.924;2023-12-20T09:04:42;3.73;;;3.43;;
1991;SDS011;997;48.448;8.924;2023-12-20T09:07:21;2.47;;;2.30;;
1991;SDS011;997;48.448;8.924;2023-12-20T09:09:51;3.30;;;2.00;;
1991;SDS011;997;48.448;8.924;2023-12-20T09:12:17;2.07;;;1.50;;
1991;SDS011;997;48.448;8.924;2023-12-20T09:14:44;4.73;;;1.83;;
1991;SDS011;997;48.448;8.924;2023-12-20T09:17:10;1.60;;;1.50;;
1991;SDS011;997;48.448;8.924;2023-12-20T09:19:37;1.60;;;1.50;;
1991;SDS011;997;48.448;8.924;2023-12-20T09:22:04;1.53;;;1.43;;
1991;SDS011;997;48.448;8.924;2023-12-20T09:24:30;2.20;;;2.00;;
1991;SDS011;997;48.448;8.924;2023-12-20T09:26:56;1.60;;;1.50;;
1991;SDS011;997;48.448;8.924;2023-12-20T09:29:22;1.30;;;1.20;;
1991;SDS011;997;48.448;8.924;2023-12-20T09:31:51;1.80;;;1.70;;
1991;SDS011;997;48.448;8.924;2023-12-20T09:34:31;1.30;;;1.20;;
1991;SDS011;997;48.448;8.924;2023-12-20T09:36:58;2.00;;;1.80;;
1991;SDS011;997;48.448;8.924;2023-12-20T09:39:26;2.70;;;2.50;;
1991;SDS011;997;48.448;8.924;2023-12-20T09:42:03;2.57;;;2.37;;
1991;SDS011;997;48.448;8.924;2023-12-20T09:44:39;4.43;;;3.10;;
1991;SDS011;997;48.448;8.924;2023-12-20T09:47:15;3.20;;;3.00;;
1991;SDS011;997;48.448;8.924;2023-12-20T09:50:07;2.47;;;2.27;;
1991;SDS011;997;48.448;8.924;2023-12-20T09:52:36;4.10;;;3.53;;
1991;SDS011;997;48.448;8.924;2023-12-20T09:55:04;2.27;;;2.07;;
1991;SDS011;997;48.448;8.924;2023-12-20T09:57:32;2.10;;;1.80;;
1991;SDS011;997;48.448;8.924;2023-12-20T09:59:59;2.67;;;2.47;;
1991;SDS011;997;48.448;8.924;2023-12-20T10:02:25;1.97;;;1.87;;
1991;SDS011;997;48.448;8.924;2023-12-20T10:04:52;1.70;;;1.60;;
1991;SDS011;997;48.448;8.924;2023-12-20T10:07:19;3.03;;;1.97;;
1991;SDS011;997;48.448;8.924;2023-12-20T10:09:47;2.33;;;1.80;;
1991;SDS011;997;48.448;8.924;2023-12-20T10:12:14;1.60;;;1.50;;
1991;SDS011;997;48.448;8.924;2023-12-20T10:14:41;2.00;;;1.80;;
1991;SDS011;997;48.448;8.924;2023-12-20T10:17:07;5.93;;;2.17;;
1991;SDS011;997;48.448;8.924;2023-12-20T10:19:33;2.03;;;1.63;;
1991;SDS011;997;48.448;8.924;2023-12-20T10:22:04;2.40;;;2.20;;
1991;SDS011;997;48.448;8.924;2023-12-20T11:23:56;3.00;;;2.40;;
1991;SDS011;997;48.448;8.924;2023-12-20T11:26:26;2.13;;;1.87;;
1991;SDS011;997;48.448;8.924;2023-12-20T11:28:54;2.23;;;2.03;;
1991;SDS011;997;48.448;8.924;2023-12-20T11:31:40;2.60;;;2.13;;
1991;SDS011;997;48.448;8.924;2023-12-20T11:34:12;1.80;;;1.70;;
1991;SDS011;997;48.448;8.924;2023-12-20T11:36:42;3.43;;;2.43;;
1991;SDS011;997;48.448;8.924;2023-12-20T11:39:07;1.80;;;1.70;;
1991;SDS011;997;48.448;8.924;2023-12-20T11:41:38;2.67;;;2.30;;
1991;SDS011;997;48.448;8.924;2023-12-20T11:44:06;2.50;;;2.30;;
1991;SDS011;997;48.448;8.924;2023-12-20T11:46:33;7.20;;;1.33;;
1991;SDS011;997;48.448;8.924;2023-12-20T11:49:00;1.53;;;1.43;;
1991;SDS011;997;48.448;8.924;2023-12-20T11:51:26;3.27;;;2.10;;
1991;SDS011;997;48.448;8.924;2023-12-20T11:53:53;3.13;;;2.00;;
1991;SDS011;997;48.448;8.924;2023-12-20T11:56:19;3.87;;;2.40;;
1991;SDS011;997;48.448;8.924;2023-12-20T11:58:45;2.37;;;1.63;;
1991;SDS011;997;48.448;8.924;2023-12-20T12:01:11;3.40;;;1.30;;
1991;SDS011;997;48.448;8.924;2023-12-20T12:03:37;4.13;;;1.87;;
1991;SDS011;997;48.448;8.924;2023-12-20T12:06:04;1.63;;;1.50;;
1991;SDS011;997;48.448;8.924;2023-12-20T12:08:30;2.10;;;1.30;;
1991;SDS011;997;48.448;8.924;2023-12-20T12:10:55;2.90;;;1.90;;
1991;SDS011;997;48.448;8.924;2023-12-20T12:13:21;1.70;;;1.60;;
1991;SDS011;997;48.448;8.924;2023-12-20T12:15:47;1.37;;;1.27;;
1991;SDS011;997;48.448;8.924;2023-12-20T12:18:15;2.13;;;1.93;;
1991;SDS011;997;48.448;8.924;2023-12-20T12:20:42;2.80;;;2.30;;
1991;SDS011;997;48.448;8.924;2023-12-20T12:23:07;4.20;;;2.93;;
1991;SDS011;997;48.448;8.924;2023-12-20T12:25:36;2.50;;;2.00;;
1991;SDS011;997;48.448;8.924;2023-12-20T12:28:03;2.17;;;1.90;;
1991;SDS011;997;48.448;8.924;2023-12-20T12:30:29;4.67;;;2.73;;
1991;SDS011;997;48.448;8.924;2023-12-20T12:32:56;2.83;;;1.50;;
1991;SDS011;997;48.448;8.924;2023-12-20T12:35:22;3.47;;;1.77;;
1991;SDS011;997;48.448;8.924;2023-12-20T12:37:48;2.57;;;2.27;;
1991;SDS011;997;48.448;8.924;2023-12-20T12:40:14;2.20;;;1.70;;
1991;SDS011;997;48.448;8.924;2023-12-20T12:42:41;3.60;;;1.80;;
1991;SDS011;997;48.448;8.924;2023-12-20T12:45:09;6.07;;;4.90;;
1991;SDS011;997;48.448;8.924;2023-12-20T12:47:36;6.10;;;5.57;;
1991;SDS011;997;48.448;8.924;2023-12-20T12:50:02;3.33;;;1.60;;
1991;SDS011;997;48.448;8.924;2023-12-20T12:52:29;3.03;;;2.50;;
1991;SDS011;997;48.448;8.924;2023-12-20T12:54:55;6.27;;;5.53;;
1991;SDS011;997;48.448;8.924;2023-12-20T12:57:21;2.73;;;1.70;;
1991;SDS011;997;48.448;8.924;2023-12-20T12:59:47;3.63;;;2.70;;
1991;SDS011;997;48.448;8.924;2023-12-20T13:02:13;3.03;;;2.70;;
1991;SDS011;997;48.448;8.924;2023-12-20T13:04:40;5.37;;;2.10;;
1991;SDS011;997;48.448;8.924;2023-12-20T13:07:10;5.67;;;2.97;;
1991;SDS011;997;48.448;8.924;2023-12-20T13:09:43;2.70;;;2.30;;
1991;SDS011;997;48.448;8.924;2023-12-20T13:12:12;5.40;;;4.83;;
1991;SDS011;997;48.448;8.924;2023-12-20T13:14:38;7.23;;;4.40;;
1991;SDS011;997;48.448;8.924;2023-12-20T13:17:08;4.33;;;3.67;;
1991;SDS011;997;48.448;8.924;2023-12-20T13:19:34;2.70;;;2.50;;
1991;SDS011;997;48.448;8.924;2023-12-20T13:22:00;4.20;;;3.37;;
1991;SDS011;997;48.448;8.924;2023-12-20T13:24:26;5.43;;;3.20;;
1991;SDS011;997;48.448;8.924;2023-12-20T13:26:54;3.50;;;3.07;;
1991;SDS011;997;48.448;8.924;2023-12-20T13:29:23;3.70;;;2.20;;
1991;SDS011;997;48.448;8.924;2023-12-20T13:31:51;3.43;;;2.83;;
1991;SDS011;997;48.448;8.924;2023-12-20T13:34:17;4.87;;;3.63;;
1991;SDS011;997;48.448;8.924;2023-12-20T13:36:45;3.53;;;2.00;;
1991;SDS011;997;48.448;8.924;2023-12-20T13:39:12;2.20;;;1.50;;
1991;SDS011;997;48.448;8.924;2023-12-20T13:41:39;3.57;;;3.27;;
1991;SDS011;997;48.448;8.924;2023-12-20T13:44:05;6.30;;;2.73;;
1991;SDS011;997;48.448;8.924;2023-12-20T13:46:30;3.00;;;1.67;;
1991;SDS011;997;48.448;8.924;2023-12-20T13:48:56;11.23;;;1.90;;
1991;SDS011;997;48.448;8.924;2023-12-20T13:51:22;1.73;;;1.63;;
1991;SDS011;997;48.448;8.924;2023-12-20T13:53:48;4.13;;;1.97;;
1991;SDS011;997;48.448;8.924;2023-12-20T13:56:17;1.70;;;1.57;;
1991;SDS011;997;48.448;8.924;2023-12-20T13:58:45;3.47;;;1.40;;
1991;SDS011;997;48.448;8.924;2023-12-20T14:01:12;3.77;;;3.43;;
1991;SDS011;997;48.448;8.924;2023-12-20T14:03:37;2.10;;;2.00;;
1991;SDS011;997;48.448;8.924;2023-12-20T14:06:03;3.70;;;1.60;;
1991;SDS011;997;48.448;8.924;2023-12-20T14:08:29;3.93;;;3.10;;
1991;SDS011;997;48.448;8.924;2023-12-20T14:10:55;5.23;;;3.50;;
1991;SDS011;997;48.448;8.924;2023-12-20T14:13:26;3.70;;;3.23;;
1991;SDS011;997;48.448;8.924;2023-12-20T14:15:52;2.90;;;2.60;;
1991;SDS011;997;48.448;8.924;2023-12-20T14:18:19;4.80;;;2.70;;
1991;SDS011;997;48.448;8.924;2023-12-20T14:20:45;3.67;;;2.43;;
1991;SDS011;997;48.448;8.924;2023-12-20T14:23:12;4.40;;;4.00;;
1991;SDS011;997;48.448;8.924;2023-12-20T14:25:41;4.37;;;3.00;;
1991;SDS011;997;48.448;8.924;2023-12-20T14:28:07;3.10;;;2.30;;
1991;SDS011;997;48.448;8.924;2023-12-20T14:30:38;2.07;;;1.80;;
1991;SDS011;997;48.448;8.924;2023-12-20T14:33:09;7.10;;;4.30;;
1991;SDS011;997;48.448;8.924;2023-12-20T14:35:39;2.50;;;1.80;;
1991;SDS011;997;48.448;8.924;2023-12-20T14:38:05;2.67;;;1.60;;
1991;SDS011;997;48.448;8.924;2023-12-20T14:40:31;3.60;;;3.30;;
1991;SDS011;997;48.448;8.924;2023-12-20T14:42:57;2.83;;;1.97;;
1991;SDS011;997;48.448;8.924;2023-12-20T14:45:29;3.00;;;2.23;;
1991;SDS011;997;48.448;8.924;2023-12-20T14:48:08;2.90;;;2.60;;
1991;SDS011;997;48.448;8.924;2023-12-20T14:50:39;5.83;;;1.73;;
1991;SDS011;997;48.448;8.924;2023-12-20T14:53:08;2.53;;;2.33;;
1991;SDS011;997;48.448;8.924;2023-12-20T14:55:34;6.50;;;2.40;;
1991;SDS011;997;48.448;8.924;2023-12-20T14:58:10;11.37;;;3.43;;
1991;SDS011;997;48.448;8.924;2023-12-20T15:00:37;4.33;;;3.27;;
1991;SDS011;997;48.448;8.924;2023-12-20T15:03:04;7.47;;;2.30;;
1991;SDS011;997;48.448;8.924;2023-12-20T15:05:31;3.90;;;2.50;;
1991;SDS011;997;48.448;8.924;2023-12-20T15:07:57;2.50;;;2.30;;
1991;SDS011;997;48.448;8.924;2023-12-20T15:10:23;6.43;;;2.47;;
1991;SDS011;997;48.448;8.924;2023-12-20T15:12:48;3.00;;;2.80;;
1991;SDS011;997;48.448;8.924;2023-12-20T15:15:14;5.27;;;3.67;;
1991;SDS011;997;48.448;8.924;2023-12-20T15:17:40;3.40;;;3.20;;
1991;SDS011;997;48.448;8.924;2023-12-20T15:20:06;4.77;;;4.37;;
1991;SDS011;997;48.448;8.924;2023-12-20T15:22:35;7.30;;;6.43;;
1991;SDS011;997;48.448;8.924;2023-12-20T15:25:01;4.80;;;4.40;;
1991;SDS011;997;48.448;8.924;2023-12-20T15:27:26;5.40;;;4.87;;
1991;SDS011;997;48.448;8.924;2023-12-20T15:29:52;8.63;;;3.60;;
1991;SDS011;997;48.448;8.924;2023-12-20T15:32:18;4.67;;;4.20;;
1991;SDS011;997;48.448;8.924;2023-12-20T15:34:44;4.33;;;3.93;;
1991;SDS011;997;48.448;8.924;2023-12-20T15:37:10;3.33;;;2.37;;
1991;SDS011;997;48.448;8.924;2023-12-20T15:39:36;3.00;;;2.80;;
1991;SDS011;997;48.448;8.924;2023-12-20T15:42:02;2.17;;;1.97;;
1991;SDS011;997;48.448;8.924;2023-12-20T15:44:27;1.80;;;1.70;;
1991;SDS011;997;48.448;8.924;2023-12-20T15:46:53;3.90;;;2.37;;
1991;SDS011;997;48.448;8.924;2023-12-20T15:49:19;2.30;;;1.90;;
1991;SDS011;997;48.448;8.924;2023-12-20T15:51:44;2.43;;;1.97;;
1991;SDS011;997;48.448;8.924;2023-12-20T15:54:10;2.03;;;1.83;;
1991;SDS011;997;48.448;8.924;2023-12-20T15:56:36;2.13;;;1.93;;
1991;SDS011;997;48.448;8.924;2023-12-20T15:59:06;2.40;;;1.97;;
1991;SDS011;997;48.448;8.924;2023-12-20T16:01:33;4.20;;;2.13;;
1991;SDS011;997;48.448;8.924;2023-12-20T16:04:00;3.00;;;2.50;;
1991;SDS011;997;48.448;8.924;2023-12-20T16:06:26;2.20;;;1.83;;
1991;SDS011;997;48.448;8.924;2023-12-20T16:08:53;7.03;;;3.70;;
1991;SDS011;997;48.448;8.924;2023-12-20T16:11:19;3.63;;;2.63;;
1991;SDS011;997;48.448;8.924;2023-12-20T16:13:45;3.53;;;3.07;;
1991;SDS011;997;48.448;8.924;2023-12-20T16:16:11;4.50;;;4.10;;
1991;SDS011;997;48.448;8.924;2023-12-20T16:18:37;6.00;;;2.73;;
1991;SDS011;997;48.448;8.924;2023-12-20T16:21:03;2.80;;;2.60;;
1991;SDS011;997;48.448;8.924;2023-12-20T16:23:29;4.77;;;3.27;;
1991;SDS011;997;48.448;8.924;2023-12-20T16:25:55;5.20;;;3.90;;
1991;SDS011;997;48.448;8.924;2023-12-20T16:28:21;3.80;;;3.50;;
1991;SDS011;997;48.448;8.924;2023-12-20T16:30:47;6.87;;;4.20;;
1991;SDS011;997;48.448;8.924;2023-12-20T16:33:13;5.10;;;3.40;;
1991;SDS011;997;48.448;8.924;2023-12-20T16:35:39;4.97;;;3.97;;
1991;SDS011;997;48.448;8.924;2023-12-20T16:38:04;3.03;;;2.20;;
1991;SDS011;997;48.448;8.924;2023-12-20T16:40:30;4.13;;;3.83;;
1991;SDS011;997;48.448;8.924;2023-12-20T16:42:56;5.90;;;5.30;;
1991;SDS011;997;48.448;8.924;2023-12-20T16:45:22;3.60;;;3.30;;
1991;SDS011;997;48.448;8.924;2023-12-20T16:47:48;5.67;;;5.17;;
1991;SDS011;997;48.448;8.924;2023-12-20T16:50:14;4.23;;;3.40;;